Time;durP1;ratioP1;P1;durP2;ratioP2;P2;SDS_P1;SDS_P2;PMS_P1;PMS_P2;Temp;Humidity;BMP_temperature;BMP_pressure;BME280_temperature;BME280_humidity;BME280_pressure;Samples;Min_cycle;Max_cycle;Signal;HPM_P1;HPM_P2
2021/03/02 00:01:07;;;;;;;;;;;10.80;99.90;;;10.41;100.00;101211.00;5033959;28;19929;-62
2021/03/02 00:03:37;;;;;;;;;;;11.00;99.90;;;10.62;100.00;101215.19;5032415;28;20457;-63
2021/03/02 00:06:06;;;;;;;;;;;11.20;99.90;;;10.78;100.00;101210.50;5032786;28;19929;-62
2021/03/02 00:08:33;;;;;;;;;;;11.40;99.90;;;10.81;100.00;101212.63;5033540;28;19976;-62
2021/03/02 00:11:01;;;;;;;;;;;11.40;99.90;;;10.85;100.00;101208.28;5033376;28;19926;-62
2021/03/02 00:13:28;;;;;;;;;;;11.40;99.90;;;10.88;100.00;101213.13;5032730;28;19965;-62
2021/03/02 00:15:57;;;;;;;;;;;11.50;99.90;;;10.88;100.00;101210.44;5032433;28;20363;-63
2021/03/02 00:18:25;;;;;;;;;;;11.50;99.90;;;10.89;100.00;101209.31;5033634;28;19972;-62
2021/03/02 00:20:56;;;;;;;;;;;11.50;99.90;;;11.03;100.00;101209.50;5033221;28;20329;-62
2021/03/02 00:23:26;;;;;;;;;;;11.60;99.90;;;11.04;100.00;101202.97;5032702;28;19981;-63
2021/03/02 00:25:56;;;;;;;;;;;11.60;99.90;;;10.97;100.00;101206.81;5032198;28;20465;-63
2021/03/02 00:28:26;;;;;;;;;;;11.50;99.90;;;11.01;100.00;101204.34;5033288;28;19928;-63
2021/03/02 00:30:54;;;;;;;;;;;11.50;99.90;;;10.89;100.00;101212.03;5033126;28;19952;-63
2021/03/02 00:33:23;;;;;;;;;;;11.50;99.90;;;10.61;100.00;101207.38;5032606;28;19972;-63
2021/03/02 00:35:50;;;;;;;;;;;11.30;99.90;;;10.59;100.00;101206.81;5032420;28;19931;-63
2021/03/02 00:38:17;;;;;;;;;;;11.20;99.90;;;10.54;100.00;101207.69;5033217;28;19925;-63
2021/03/02 00:40:45;;;;;;;;;;;11.20;99.90;;;10.73;100.00;101210.53;5033201;28;20024;-63
2021/03/02 00:43:12;;;;;;;;;;;11.30;99.90;;;10.88;100.00;101205.81;5032767;28;19925;-63
2021/03/02 00:45:40;;;;;;;;;;;11.50;99.90;;;11.00;100.00;101210.88;5032436;28;20016;-63
2021/03/02 00:48:07;;;;;;;;;;;11.60;99.90;;;11.04;100.00;101198.38;5033254;28;19975;-63
2021/03/02 00:50:34;;;;;;;;;;;11.60;99.90;;;10.98;100.00;101205.72;5033205;28;19979;-63
2021/03/02 00:53:02;;;;;;;;;;;11.60;99.90;;;10.93;100.00;101199.56;5032341;28;20040;-63
2021/03/02 00:55:29;;;;;;;;;;;11.50;99.90;;;10.75;100.00;101194.81;5031995;28;20348;-63
2021/03/02 00:57:57;;;;;;;;;;;11.30;99.90;;;10.56;100.00;101207.38;5033709;28;19936;-63
2021/03/02 01:00:25;;;;;;;;;;;11.10;99.90;;;10.49;100.00;101199.59;5033296;28;20024;-63
2021/03/02 01:02:52;;;;;;;;;;;11.00;99.90;;;10.38;100.00;101201.56;5032854;28;20027;-62
2021/03/02 01:05:19;;;;;;;;;;;11.00;99.90;;;10.19;100.00;101199.75;5032463;28;19925;-63
2021/03/02 01:07:47;;;;;;;;;;;10.80;99.90;;;10.21;100.00;101208.41;5033019;28;20019;-63
2021/03/02 01:10:14;;;;;;;;;;;10.80;99.90;;;10.15;100.00;101207.59;5032882;28;20071;-63
2021/03/02 01:12:42;;;;;;;;;;;10.70;99.90;;;10.11;100.00;101211.94;5032680;28;20394;-63
2021/03/02 01:15:11;;;;;;;;;;;10.70;99.90;;;10.11;100.00;101222.72;5031518;28;19925;-63
2021/03/02 01:17:38;;;;;;;;;;;10.70;99.90;;;10.30;100.00;101212.16;5033324;28;20015;-63
2021/03/02 01:20:07;;;;;;;;;;;10.80;99.90;;;10.42;100.00;101218.03;5033799;28;19979;-63
2021/03/02 01:22:34;;;;;;;;;;;11.00;99.90;;;10.61;100.00;101204.66;5033211;28;20019;-63
2021/03/02 01:25:01;;;;;;;;;;;11.20;99.90;;;10.67;100.00;101209.75;5031962;28;19929;-63
2021/03/02 01:27:29;;;;;;;;;;;11.30;99.90;;;10.68;100.00;101210.56;5032775;28;19925;-63
2021/03/02 01:29:56;;;;;;;;;;;11.30;99.90;;;10.67;100.00;101201.63;5032813;28;20414;-63
2021/03/02 01:32:24;;;;;;;;;;;11.30;99.90;;;10.76;100.00;101212.69;5033225;28;19925;-63
2021/03/02 01:34:51;;;;;;;;;;;11.40;99.90;;;10.86;100.00;101215.28;5031642;28;20016;-63
2021/03/02 01:37:18;;;;;;;;;;;11.40;99.90;;;10.86;100.00;101212.59;5032374;28;19957;-63
2021/03/02 01:39:45;;;;;;;;;;;11.40;99.90;;;10.84;100.00;101212.06;5033295;28;19952;-63
2021/03/02 01:42:12;;;;;;;;;;;11.40;99.90;;;10.77;100.00;101208.88;5033177;28;19963;-63
2021/03/02 01:44:40;;;;;;;;;;;11.40;99.90;;;10.72;100.00;101208.91;5031420;28;20027;-63
2021/03/02 01:47:08;;;;;;;;;;;11.30;99.90;;;10.69;100.00;101204.88;5035228;28;20035;-63
2021/03/02 01:49:37;;;;;;;;;;;11.30;99.90;;;10.72;100.00;101204.31;5036634;28;20036;-63
2021/03/02 01:52:04;;;;;;;;;;;11.30;99.90;;;10.77;100.00;101204.28;5036914;28;20370;-63
2021/03/02 01:54:32;;;;;;;;;;;11.40;99.90;;;10.79;100.00;101202.09;5035000;28;19964;-63
2021/03/02 01:56:59;;;;;;;;;;;11.40;99.90;;;10.86;100.00;101205.28;5036504;28;20379;-63
2021/03/02 01:59:26;;;;;;;;;;;11.40;99.90;;;10.94;100.00;101201.19;5036393;28;19976;-63
2021/03/02 02:01:54;;;;;;;;;;;11.50;99.90;;;10.98;100.00;101200.31;5036786;28;19980;-63
2021/03/02 02:04:23;;;;;;;;;;;11.60;99.90;;;11.02;100.00;101199.75;5035403;28;19960;-63
2021/03/02 02:06:53;;;;;;;;;;;11.60;99.90;;;11.05;100.00;101199.19;5036236;28;19979;-63
2021/03/02 02:09:26;;;;;;;;;;;11.60;99.90;;;11.05;100.00;101197.28;5036419;28;19929;-62
2021/03/02 02:11:59;;;;;;;;;;;11.70;99.90;;;11.09;100.00;101205.66;5036093;28;20403;-63
2021/03/02 02:14:34;;;;;;;;;;;11.70;99.90;;;11.09;100.00;101200.25;5034814;28;19925;-63
2021/03/02 02:17:06;;;;;;;;;;;11.70;99.90;;;11.08;100.00;101204.03;5035557;28;19948;-63
2021/03/02 02:19:46;;;;;;;;;;;11.70;99.90;;;11.03;100.00;101191.38;5036202;28;19929;-62
2021/03/02 02:22:28;;;;;;;;;;;11.60;99.90;;;11.01;100.00;101193.53;5036700;28;19967;-63
2021/03/02 02:25:19;;;;;;;;;;;11.60;99.90;;;10.97;100.00;101187.88;5034736;28;20014;-63
2021/03/02 02:27:51;;;;;;;;;;;11.60;99.90;;;10.96;100.00;101201.69;5036679;28;19976;-63
2021/03/02 02:30:19;;;;;;;;;;;11.50;99.90;;;10.90;100.00;101192.00;5036755;28;19929;-62
2021/03/02 02:32:49;;;;;;;;;;;11.50;99.90;;;10.73;100.00;101197.78;5035647;28;19960;-63
2021/03/02 02:35:17;;;;;;;;;;;11.30;99.90;;;10.69;100.00;101199.47;5035140;28;19952;-63
2021/03/02 02:37:45;;;;;;;;;;;11.30;99.90;;;10.76;100.00;101201.88;5035039;28;20375;-63
2021/03/02 02:40:14;;;;;;;;;;;11.30;99.90;;;10.83;100.00;101200.44;5035526;28;20032;-63
2021/03/02 02:42:42;;;;;;;;;;;11.40;99.90;;;10.95;100.00;101203.59;5035033;28;20315;-62
2021/03/02 02:45:12;;;;;;;;;;;11.50;99.90;;;11.12;100.00;101205.09;5034546;28;19932;-63
2021/03/02 02:47:39;;;;;;;;;;;11.60;99.90;;;11.25;100.00;101199.81;5034992;28;19975;-63
2021/03/02 02:50:09;;;;;;;;;;;11.80;99.90;;;11.35;100.00;101197.03;5035503;28;20016;-63
2021/03/02 02:52:36;;;;;;;;;;;11.90;99.90;;;11.37;100.00;101196.72;5035075;28;19984;-62
2021/03/02 02:55:04;;;;;;;;;;;12.00;99.90;;;11.43;100.00;101201.00;5033885;28;19972;-62
2021/03/02 02:57:35;;;;;;;;;;;12.00;99.90;;;11.46;100.00;101195.00;5033779;28;19960;-63
2021/03/02 03:00:06;;;;;;;;;;;12.00;99.90;;;11.50;100.00;101196.06;5035890;28;19933;-62
2021/03/02 03:02:35;;;;;;;;;;;12.10;99.90;;;11.54;100.00;101197.09;5035772;28;20392;-63
2021/03/02 03:05:07;;;;;;;;;;;12.10;99.90;;;11.53;100.00;101188.16;5034530;28;19925;-62
2021/03/02 03:07:39;;;;;;;;;;;12.10;99.90;;;11.58;100.00;101191.94;5033660;28;19964;-62
2021/03/02 03:10:08;;;;;;;;;;;12.20;99.90;;;11.61;100.00;101192.13;5034635;28;19964;-63
2021/03/02 03:12:38;;;;;;;;;;;12.20;99.90;;;11.60;100.00;101201.38;5034978;28;19932;-63
2021/03/02 03:15:08;;;;;;;;;;;12.20;99.90;;;11.54;100.00;101191.69;5033347;28;19929;-63
2021/03/02 03:17:38;;;;;;;;;;;12.10;99.90;;;11.54;100.00;101199.81;5034344;28;20012;-63
2021/03/02 03:20:06;;;;;;;;;;;12.10;99.90;;;11.55;100.00;101196.00;5034383;28;20370;-63
2021/03/02 03:22:34;;;;;;;;;;;12.10;99.90;;;11.52;100.00;101199.28;5034551;28;19933;-63
2021/03/02 03:25:02;;;;;;;;;;;12.10;99.90;;;11.53;100.00;101201.72;5033353;28;19940;-62
2021/03/02 03:27:31;;;;;;;;;;;12.10;99.90;;;11.58;100.00;101206.25;5033960;28;20294;-63
2021/03/02 03:29:59;;;;;;;;;;;12.10;99.90;;;11.63;100.00;101203.50;5034840;28;19968;-63
2021/03/02 03:32:27;;;;;;;;;;;12.20;99.90;;;11.73;100.00;101206.16;5035086;28;19929;-63
2021/03/02 03:34:56;;;;;;;;;;;12.30;99.90;;;11.80;100.00;101200.34;5033946;28;19932;-63
2021/03/02 03:37:23;;;;;;;;;;;12.30;99.90;;;11.84;100.00;101199.50;5034830;28;19926;-63
2021/03/02 03:39:51;;;;;;;;;;;12.40;99.90;;;11.89;100.00;101196.72;5034533;28;20020;-63
2021/03/02 03:42:18;;;;;;;;;;;12.40;99.90;;;11.90;100.00;101192.94;5035175;28;20446;-63
2021/03/02 03:44:45;;;;;;;;;;;12.50;99.90;;;11.91;100.00;101196.47;5033141;28;19960;-63
2021/03/02 03:47:12;;;;;;;;;;;12.50;99.90;;;11.90;100.00;101192.94;5034092;28;19967;-63
2021/03/02 03:49:39;;;;;;;;;;;12.50;99.90;;;11.88;100.00;101194.31;5033911;28;19964;-63
2021/03/02 03:52:09;;;;;;;;;;;12.50;99.90;;;11.85;100.00;101189.50;5034033;28;20406;-63
2021/03/02 03:54:37;;;;;;;;;;;12.40;99.90;;;11.79;100.00;101198.78;5032615;28;20098;-63
2021/03/02 03:57:05;;;;;;;;;;;12.40;99.90;;;11.74;100.00;101206.94;5033631;28;20276;-63
2021/03/02 03:59:33;;;;;;;;;;;12.30;99.90;;;11.77;100.00;101206.34;5033373;28;19975;-63
2021/03/02 04:02:02;;;;;;;;;;;12.30;99.90;;;11.80;100.00;101200.34;5033230;28;20010;-63
2021/03/02 04:04:30;;;;;;;;;;;12.40;99.90;;;11.82;100.00;101207.13;5031644;28;19976;-63
2021/03/02 04:06:58;;;;;;;;;;;12.40;99.90;;;11.81;100.00;101210.13;5033230;28;19925;-63
2021/03/02 04:09:27;;;;;;;;;;;12.40;99.90;;;11.82;100.00;101211.75;5032767;28;19968;-63
2021/03/02 04:11:55;;;;;;;;;;;12.40;99.90;;;11.80;100.00;101212.00;5033417;28;20354;-63
2021/03/02 04:14:23;;;;;;;;;;;12.40;99.90;;;11.83;100.00;101206.00;5032255;28;20240;-62
2021/03/02 04:16:50;;;;;;;;;;;12.40;99.90;;;11.81;100.00;101205.50;5033812;28;20277;-62
2021/03/02 04:19:17;;;;;;;;;;;12.40;99.90;;;11.80;100.00;101206.59;5033505;28;19964;-63
2021/03/02 04:21:44;;;;;;;;;;;12.40;99.90;;;11.83;100.00;101208.72;5033380;28;20014;-63
2021/03/02 04:24:11;;;;;;;;;;;12.40;99.90;;;11.86;100.00;101207.34;5032137;28;19972;-63
2021/03/02 04:26:40;;;;;;;;;;;12.40;99.90;;;11.89;100.00;101204.88;5032849;28;20025;-63
2021/03/02 04:29:07;;;;;;;;;;;12.40;99.90;;;11.91;100.00;101213.53;5032941;28;19959;-63
2021/03/02 04:31:34;;;;;;;;;;;12.50;99.90;;;11.95;100.00;101209.13;5033003;28;20302;-63
2021/03/02 04:34:02;;;;;;;;;;;12.50;99.90;;;12.01;100.00;101212.56;5032358;28;19972;-63
2021/03/02 04:36:29;;;;;;;;;;;12.50;99.90;;;12.00;100.00;101211.78;5033243;28;20461;-63
2021/03/02 04:38:57;;;;;;;;;;;12.50;99.90;;;11.99;100.00;101217.50;5032898;28;20024;-63
2021/03/02 04:41:24;;;;;;;;;;;12.50;99.90;;;11.94;100.00;101221.09;5033231;28;20021;-63
2021/03/02 04:43:52;;;;;;;;;;;12.50;99.90;;;11.95;100.00;101219.97;5032104;28;20516;-63
2021/03/02 04:46:20;;;;;;;;;;;12.50;99.90;;;11.92;100.00;101223.25;5033156;28;19925;-63
2021/03/02 04:48:47;;;;;;;;;;;12.50;99.90;;;11.87;100.00;101225.22;5032909;28;19937;-63
2021/03/02 04:51:14;;;;;;;;;;;12.40;99.90;;;11.81;100.00;101223.66;5033423;28;20022;-63
2021/03/02 04:53:41;;;;;;;;;;;12.40;99.90;;;11.75;100.00;101233.75;5032405;28;19979;-63
2021/03/02 04:56:09;;;;;;;;;;;12.30;99.90;;;11.73;100.00;101235.94;5032326;28;20039;-63
2021/03/02 04:58:36;;;;;;;;;;;12.20;99.90;;;11.65;100.00;101233.81;5033085;28;20027;-63
2021/03/02 05:01:04;;;;;;;;;;;12.20;99.90;;;11.58;100.00;101225.22;5033391;28;20390;-64
2021/03/02 05:03:31;;;;;;;;;;;12.20;99.90;;;11.57;100.00;101226.31;5032337;28;19972;-63
2021/03/02 05:05:59;;;;;;;;;;;12.10;99.90;;;11.62;100.00;101234.38;5032680;28;19921;-63
2021/03/02 05:08:26;;;;;;;;;;;12.20;99.90;;;11.59;100.00;101229.53;5033499;28;19981;-62
2021/03/02 05:10:53;;;;;;;;;;;12.10;99.90;;;11.53;100.00;101228.78;5032783;28;19968;-63
2021/03/02 05:13:20;;;;;;;;;;;12.10;99.90;;;11.42;100.00;101237.31;5032131;28;20023;-62
2021/03/02 05:15:48;;;;;;;;;;;12.00;99.90;;;11.29;100.00;101232.53;5031945;28;19955;-63
2021/03/02 05:18:16;;;;;;;;;;;11.90;99.90;;;11.17;100.00;101246.44;5032610;28;20378;-63
2021/03/02 05:20:43;;;;;;;;;;;11.80;99.90;;;11.07;100.00;101245.72;5032922;28;19988;-63
2021/03/02 05:23:10;;;;;;;;;;;11.70;99.90;;;11.02;100.00;101254.69;5035902;28;20024;-63
2021/03/02 05:25:37;;;;;;;;;;;11.60;99.90;;;11.05;100.00;101251.41;5035652;28;19964;-63
2021/03/02 05:28:05;;;;;;;;;;;11.60;99.90;;;11.06;100.00;101255.75;5036429;28;20024;-63
2021/03/02 05:30:32;;;;;;;;;;;11.60;99.90;;;11.05;100.00;101256.84;5036104;28;20019;-63
2021/03/02 05:33:00;;;;;;;;;;;11.60;99.90;;;11.02;100.00;101249.28;5035475;28;20358;-63
2021/03/02 05:35:28;;;;;;;;;;;11.60;99.90;;;11.07;100.00;101251.94;5035723;28;19925;-63
2021/03/02 05:37:55;;;;;;;;;;;11.60;99.90;;;11.14;100.00;101257.03;5035986;28;19925;-63
2021/03/02 05:40:22;;;;;;;;;;;11.70;99.90;;;11.13;100.00;101256.22;5035896;28;19971;-63
2021/03/02 05:42:50;;;;;;;;;;;11.70;99.90;;;10.96;100.00;101264.75;5035491;28;20347;-63
2021/03/02 05:45:18;;;;;;;;;;;11.60;99.90;;;10.89;100.00;101260.72;5035098;28;19963;-63
2021/03/02 05:47:46;;;;;;;;;;;11.50;99.90;;;10.85;100.00;101268.59;5035912;28;19998;-63
2021/03/02 05:50:15;;;;;;;;;;;11.40;99.90;;;10.80;100.00;101267.81;5035184;28;19933;-63
2021/03/02 05:52:43;;;;;;;;;;;11.40;99.90;;;10.84;100.00;101280.53;5035831;28;20402;-63
2021/03/02 05:55:12;;;;;;;;;;;11.40;99.90;;;10.87;100.00;101279.16;5034909;28;19972;-63
2021/03/02 05:57:39;;;;;;;;;;;11.50;99.90;;;10.87;100.00;101284.56;5036038;28;20024;-63
2021/03/02 06:00:07;;;;;;;;;;;11.40;99.90;;;10.86;100.00;101288.34;5035640;28;20486;-63
2021/03/02 06:02:35;;;;;;;;;;;11.40;99.90;;;10.81;100.00;101286.50;5036156;28;19957;-63
2021/03/02 06:05:02;;;;;;;;;;;11.40;99.90;;;10.81;100.00;101293.78;5034636;28;19925;-63
2021/03/02 06:07:29;;;;;;;;;;;11.40;99.90;;;10.77;100.00;101296.25;5036025;28;20432;-63
2021/03/02 06:09:58;;;;;;;;;;;11.30;99.90;;;10.78;100.00;101297.88;5035526;28;20339;-63
2021/03/02 06:12:25;;;;;;;;;;;11.30;99.90;;;10.77;100.00;101301.66;5035486;28;20011;-63
2021/03/02 06:15:03;;;;;;;;;;;11.30;99.90;;;10.82;100.00;101308.94;5034227;28;20035;-63
2021/03/02 06:17:30;;;;;;;;;;;11.40;99.90;;;10.84;100.00;101309.47;5035600;28;19967;-63
2021/03/02 06:19:58;;;;;;;;;;;11.40;99.90;;;10.89;100.00;101314.84;5035727;28;19929;-63
2021/03/02 06:22:33;;;;;;;;;;;11.40;99.90;;;10.97;100.00;101314.25;5035610;28;19948;-63
2021/03/02 06:25:02;;;;;;;;;;;11.50;99.90;;;11.08;100.00;101309.59;5034455;28;19968;-63
2021/03/02 06:27:31;;;;;;;;;;;11.60;99.90;;;11.14;100.00;101322.81;5035218;28;19955;-63
2021/03/02 06:30:11;;;;;;;;;;;11.70;99.90;;;11.16;100.00;101319.81;5034828;28;19929;-63
2021/03/02 06:32:39;;;;;;;;;;;11.70;99.90;;;11.19;100.00;101324.66;5034978;28;19972;-63
2021/03/02 06:35:08;;;;;;;;;;;11.70;99.90;;;11.15;100.00;101329.84;5033998;28;19936;-63
2021/03/02 06:37:43;;;;;;;;;;;11.70;99.90;;;11.06;100.00;101336.13;5034783;28;20308;-63
2021/03/02 06:40:13;;;;;;;;;;;11.60;99.90;;;11.03;100.00;101344.81;5035898;28;20016;-63
2021/03/02 06:42:41;;;;;;;;;;;11.60;99.90;;;11.01;100.00;101333.44;5035822;28;19968;-63
2021/03/02 06:45:09;;;;;;;;;;;11.50;99.90;;;10.93;100.00;101332.94;5034444;28;19929;-63
2021/03/02 06:47:37;;;;;;;;;;;11.50;99.90;;;10.87;100.00;101339.47;5035015;28;20012;-63
2021/03/02 06:50:21;;;;;;;;;;;11.50;99.90;;;10.82;100.00;101339.50;5034695;28;19972;-63
2021/03/02 06:52:48;;;;;;;;;;;11.40;99.90;;;10.98;100.00;101343.75;5034276;28;20387;-63
2021/03/02 06:55:26;;;;;;;;;;;11.50;99.90;;;11.09;100.00;101349.91;5033604;28;20334;-63
2021/03/02 06:58:13;;;;;;;;;;;11.60;99.90;;;11.15;100.00;101356.09;5034628;28;19926;-65
2021/03/02 07:00:45;;;;;;;;;;;11.70;99.90;;;11.15;100.00;101353.41;5034599;28;19982;-62
2021/03/02 07:03:27;;;;;;;;;;;11.70;99.90;;;11.16;100.00;101352.28;5033813;28;19964;-65
2021/03/02 07:05:56;;;;;;;;;;;11.70;99.90;;;11.16;100.00;101358.50;5033591;28;19921;-65
2021/03/02 07:08:24;;;;;;;;;;;11.70;99.90;;;11.21;100.00;101368.50;5034269;28;19926;-63
2021/03/02 07:10:54;;;;;;;;;;;11.80;99.90;;;11.25;100.00;101366.84;5033895;28;19979;-63
2021/03/02 07:13:22;;;;;;;;;;;11.80;99.90;;;11.30;100.00;101374.94;5033389;28;19925;-63
2021/03/02 07:15:51;;;;;;;;;;;11.90;99.90;;;11.37;100.00;101380.84;5033025;28;19968;-63
2021/03/02 07:18:20;;;;;;;;;;;11.90;99.90;;;11.44;100.00;101375.94;5034092;28;20028;-63
2021/03/02 07:20:49;;;;;;;;;;;12.00;99.90;;;11.53;100.00;101379.66;5034419;28;20402;-63
2021/03/02 07:23:18;;;;;;;;;;;12.10;99.90;;;11.61;100.00;101389.09;5033595;28;19983;-63
2021/03/02 07:25:46;;;;;;;;;;;12.20;99.90;;;11.67;100.00;101379.84;5033087;28;20378;-63
2021/03/02 07:28:17;;;;;;;;;;;12.20;99.90;;;11.72;100.00;101391.47;5034080;28;19964;-62
2021/03/02 07:30:48;;;;;;;;;;;12.30;99.90;;;11.75;100.00;101388.19;5034272;28;19932;-63
2021/03/02 07:33:15;;;;;;;;;;;12.30;99.90;;;11.78;100.00;101403.88;5033097;28;19966;-63
2021/03/02 07:35:43;;;;;;;;;;;12.40;99.90;;;11.77;100.00;101412.28;5033283;28;19932;-63
2021/03/02 07:38:15;;;;;;;;;;;12.40;99.90;;;11.78;100.00;101409.28;5033061;28;19987;-63
2021/03/02 07:40:44;;;;;;;;;;;12.40;99.90;;;11.84;100.00;101410.88;5033919;28;20024;-63
2021/03/02 07:43:29;;;;;;;;;;;12.50;99.90;;;11.88;100.00;101413.81;5032831;28;19925;-63
2021/03/02 07:45:57;;;;;;;;;;;12.50;99.90;;;11.91;100.00;101411.38;5033360;28;19921;-63
2021/03/02 07:48:31;;;;;;;;;;;12.50;99.90;;;11.97;100.00;101418.34;5033436;28;19931;-63
2021/03/02 07:51:15;;;;;;;;;;;12.50;99.90;;;11.99;100.00;101421.59;5033792;28;19959;-63
2021/03/02 07:53:44;;;;;;;;;;;12.60;99.90;;;12.03;100.00;101433.47;5033028;28;19925;-63
2021/03/02 07:56:24;;;;;;;;;;;12.60;99.90;;;12.10;100.00;101432.34;5032960;28;19980;-63
2021/03/02 07:59:18;;;;;;;;;;;12.70;99.90;;;12.16;100.00;101433.91;5033443;28;19925;-63
2021/03/02 08:02:12;;;;;;;;;;;12.70;99.90;;;12.21;100.00;101439.28;5033139;28;19929;-63
2021/03/02 08:04:40;;;;;;;;;;;12.70;99.90;;;12.26;100.00;101434.63;5032443;28;19925;-63
2021/03/02 08:07:24;;;;;;;;;;;12.80;99.90;;;12.33;100.00;101432.38;5032702;28;19975;-63
2021/03/02 08:09:52;;;;;;;;;;;12.90;99.90;;;12.50;100.00;101427.31;5033107;28;19925;-63
2021/03/02 08:12:28;;;;;;;;;;;13.00;99.90;;;12.66;100.00;101429.88;5032766;28;19940;-63
2021/03/02 08:14:56;;;;;;;;;;;13.20;99.90;;;12.76;100.00;101430.56;5031905;28;20386;-63
2021/03/02 08:17:24;;;;;;;;;;;13.30;99.90;;;12.84;100.00;101426.38;5032725;28;19975;-63
2021/03/02 08:20:00;;;;;;;;;;;13.40;99.90;;;12.95;100.00;101436.81;5033654;28;19925;-63
2021/03/02 08:22:49;;;;;;;;;;;13.40;99.90;;;13.17;100.00;101436.31;5032995;28;19932;-63
2021/03/02 08:25:35;;;;;;;;;;;13.60;99.90;;;13.54;99.35;101435.53;5032462;28;19929;-63
2021/03/02 08:28:04;;;;;;;;;;;13.90;99.90;;;13.94;97.38;101437.63;5032485;28;20282;-63
2021/03/02 08:30:37;;;;;;;;;;;14.30;99.90;;;14.11;93.17;101439.78;5032339;28;19929;-63
2021/03/02 08:33:05;;;;;;;;;;;;;;;14.45;92.39;101436.75;5032079;28;20036;-63
2021/03/02 08:35:34;;;;;;;;;;;14.90;99.90;;;14.78;90.58;101441.81;5032112;28;20023;-63
2021/03/02 08:38:03;;;;;;;;;;;15.10;99.90;;;14.89;86.63;101436.19;5032968;28;19979;-63
2021/03/02 08:40:45;;;;;;;;;;;15.30;99.90;;;15.16;85.09;101456.03;5033249;28;19979;-63
2021/03/02 08:43:13;;;;;;;;;;;15.60;99.90;;;15.21;84.59;101453.19;5031942;28;19925;-63
2021/03/02 08:45:43;;;;;;;;;;;15.70;99.90;;;15.20;84.28;101458.94;5032284;28;19925;-63
2021/03/02 08:48:18;;;;;;;;;;;15.70;99.90;;;15.11;84.58;101464.28;5032821;28;20008;-63
2021/03/02 08:50:47;;;;;;;;;;;15.70;99.90;;;15.04;85.45;101458.47;5032790;28;19926;-63
2021/03/02 08:53:31;;;;;;;;;;;15.60;99.90;;;15.08;83.51;101467.63;5032388;28;19925;-63
2021/03/02 08:55:59;;;;;;;;;;;15.60;99.90;;;14.94;84.79;101472.28;5032905;28;20027;-63
2021/03/02 08:58:28;;;;;;;;;;;;;;;14.91;85.50;101483.78;5036905;28;19925;-63
2021/03/02 09:01:01;;;;;;;;;;;15.50;99.90;;;15.07;83.39;101479.66;5036819;28;20014;-63
2021/03/02 09:03:29;;;;;;;;;;;;;;;15.21;83.73;101483.16;5036272;28;19925;-63
2021/03/02 09:06:17;;;;;;;;;;;15.70;99.90;;;15.14;83.46;101490.91;5036649;28;20007;-63
2021/03/02 09:08:56;;;;;;;;;;;15.70;99.90;;;15.06;83.78;101497.09;5037417;28;20020;-63
2021/03/02 09:11:25;;;;;;;;;;;15.60;99.90;;;15.20;82.24;101497.06;5037449;28;19926;-63
2021/03/02 09:13:53;;;;;;;;;;;15.70;99.90;;;15.06;80.64;101499.00;5035854;28;19931;-64
2021/03/02 09:16:34;;;;;;;;;;;15.60;99.90;;;15.09;82.38;101501.94;5036608;28;19932;-64
2021/03/02 09:19:06;;;;;;;;;;;15.70;99.90;;;15.27;80.16;101501.00;5037321;28;20348;-64
2021/03/02 09:21:34;;;;;;;;;;;15.70;99.90;;;15.57;79.89;101499.56;5037277;28;19976;-65
2021/03/02 09:24:01;;;;;;;;;;;16.00;99.90;;;15.55;77.57;101496.34;5035249;28;20339;-65
2021/03/02 09:26:30;;;;;;;;;;;16.10;99.90;;;15.51;75.43;101500.00;5036212;28;20014;-63
2021/03/02 09:28:58;;;;;;;;;;;16.00;99.90;;;15.18;75.61;101508.28;5036871;28;19976;-63
2021/03/02 09:31:27;;;;;;;;;;;15.80;99.90;;;14.97;76.75;101504.34;5036966;28;19948;-63
2021/03/02 09:33:56;;;;;;;;;;;15.50;99.90;;;14.94;76.77;101507.69;5035470;28;20211;-63
2021/03/02 09:36:25;;;;;;;;;;;15.50;99.90;;;15.36;76.56;101498.38;5035925;28;19963;-63
2021/03/02 09:38:53;;;;;;;;;;;15.80;99.90;;;15.77;77.34;101504.59;5036861;28;20465;-63
2021/03/02 09:41:34;;;;;;;;;;;16.10;99.90;;;16.23;76.82;101501.53;5036801;28;19972;-63
2021/03/02 09:44:35;;;;;;;;;;;16.60;99.90;;;16.20;69.35;101513.09;5035621;28;19979;-65
2021/03/02 09:47:04;;;;;;;;;;;16.60;99.90;;;16.45;69.53;101505.38;4975462;28;20064;-64
2021/03/02 09:49:37;;;;;;;;;;;16.90;99.90;;;16.50;66.71;101503.34;4975169;28;19930;-65
2021/03/02 09:52:05;;;;;;;;;;;;;;;16.51;66.72;101507.66;5006417;28;19929;-64
2021/03/02 09:54:32;;;;;;;;;;;16.90;99.90;;;16.47;65.28;101511.34;5034780;28;19983;-65
2021/03/02 09:57:02;;;;;;;;;;;16.90;99.90;;;16.35;66.16;101515.44;5035719;28;19936;-65
2021/03/02 09:59:30;;;;;;;;;;;16.80;99.90;;;16.27;67.70;101515.38;5036165;28;20398;-64
2021/03/02 10:01:57;;;;;;;;;;;16.80;99.90;;;16.42;65.46;101515.00;5036051;28;19925;-64
2021/03/02 10:04:25;;;;;;;;;;;16.90;99.90;;;16.51;64.08;101515.84;5035374;28;19926;-64
2021/03/02 10:06:53;;;;;;;;;;;16.90;99.90;;;16.54;65.13;101519.88;5035054;28;19925;-64
2021/03/02 10:09:23;;;;;;;;;;;17.00;99.90;;;16.66;61.33;101518.22;5036168;28;19994;-64
2021/03/02 10:12:09;;;;;;;;;;;17.10;99.90;;;16.79;63.53;101519.25;5036055;28;20654;-64
2021/03/02 10:14:38;;;;;;;;;;;17.20;99.90;;;16.70;63.04;101518.41;5034289;28;19975;-64
2021/03/02 10:17:05;;;;;;;;;;;17.20;99.90;;;16.65;62.44;101518.53;5035228;28;19932;-65
2021/03/02 10:19:34;;;;;;;;;;;17.10;99.90;;;16.64;62.22;101517.72;5036120;28;20019;-65
2021/03/02 10:22:03;;;;;;;;;;;17.10;99.90;;;16.58;61.10;101529.09;5035648;28;19925;-63
2021/03/02 10:24:31;;;;;;;;;;;17.00;99.90;;;16.60;62.32;101524.94;5034610;28;20008;-63
2021/03/02 10:26:59;;;;;;;;;;;17.10;99.90;;;16.85;61.08;101518.81;5035615;28;19925;-63
2021/03/02 10:29:27;;;;;;;;;;;;;;;17.04;59.42;101521.28;5036319;28;20365;-63
2021/03/02 10:31:54;;;;;;;;;;;17.50;99.90;;;16.97;61.22;101526.41;5036113;28;19929;-63
2021/03/02 10:34:22;;;;;;;;;;;17.40;99.90;;;17.16;60.93;101526.97;5034381;28;19925;-63
2021/03/02 10:36:53;;;;;;;;;;;17.60;99.90;;;17.20;60.50;101527.13;5034839;28;20386;-63
2021/03/02 10:39:21;;;;;;;;;;;17.70;99.90;;;17.10;59.21;101524.69;5035257;28;19932;-63
2021/03/02 10:41:49;;;;;;;;;;;17.60;99.90;;;17.23;59.59;101526.50;5035174;28;19964;-63
2021/03/02 10:44:16;;;;;;;;;;;17.70;99.90;;;17.02;60.79;101528.19;5034645;28;19936;-65
2021/03/02 10:46:44;;;;;;;;;;;17.60;99.90;;;16.99;59.99;101526.91;5035000;28;20012;-62
2021/03/02 10:49:12;;;;;;;;;;;17.50;99.90;;;17.00;58.89;101524.97;5036058;28;19925;-65
2021/03/02 10:51:39;;;;;;;;;;;17.50;99.90;;;16.98;62.98;101528.03;5035563;28;19932;-65
2021/03/02 10:54:06;;;;;;;;;;;17.50;99.90;;;16.92;61.76;101535.56;5034624;28;19983;-64
2021/03/02 10:56:35;;;;;;;;;;;17.50;99.90;;;16.77;62.15;101533.22;5035185;28;19956;-64
2021/03/02 10:59:02;;;;;;;;;;;17.40;99.90;;;16.65;60.51;101535.75;5035728;28;20326;-64
2021/03/02 11:01:29;;;;;;;;;;;17.20;99.90;;;16.60;62.93;101535.03;5036178;28;19956;-64
2021/03/02 11:03:56;;;;;;;;;;;17.10;99.90;;;16.70;62.22;101537.50;5034836;28;19941;-64
2021/03/02 11:06:25;;;;;;;;;;;17.20;99.90;;;16.63;62.66;101537.16;5034357;28;19947;-63
2021/03/02 11:08:52;;;;;;;;;;;17.10;99.90;;;16.73;62.48;101536.88;5034659;28;19930;-63
2021/03/02 11:11:20;;;;;;;;;;;17.20;99.90;;;16.72;62.39;101533.34;5035545;28;19925;-63
2021/03/02 11:13:49;;;;;;;;;;;17.20;99.90;;;16.85;63.31;101537.13;5034133;28;20016;-63
2021/03/02 11:16:17;;;;;;;;;;;17.40;99.90;;;16.98;63.88;101541.69;5034075;28;19936;-63